Weather observations for the past three days for
Morris, Morris Municipal Airport
Metric (Imperial)
Date Time (cdt) Wind (kph) Vis. (km) Weather Sky Cond. Temperature (ºC) Relative Humidity Wind Chill (°C) Heat Index (°C) Pressure Precipitation (cm)
Air Dwpt 6 hour altimeter (cm) sea level (mb) 1 hr 3 hr 6 hr
Max. Min.
05 01:55 E 19 16.09 Fair CLR 20 20 100% 76.1 0.0
05 01:35 E 19 16.09 Fair CLR 20 20 100% 76.12 0.0
05 01:15 E 15 G 28 16.09 Fair CLR 20 20 100% 76.12 0.0
05 00:55 E 15 16.09 Fair CLR 20 20 100% 76.12 0.0
05 00:35 E 13 16.09 Fair CLR 21 21 100% 76.12 0.0
05 00:15 E 13 16.09 Fair CLR 21 21 100% 76.12 0.0
04 23:55 E 11 16.09 Fair CLR 20 20 100% 76.12 0.0
04 23:35 E 9 16.09 Fair CLR 21 21 100% 76.1 0.0
04 23:15 E 11 16.09 Fair CLR 21 21 100% 76.07 0.0
04 22:55 E 9 16.09 Fair CLR 22 22 100% 76.07 0.0
04 22:35 E 9 16.09 Fair CLR 22 22 100% 76.1 0.0
04 22:15 E 11 16.09 Fair CLR 22 22 100% 76.07 0.0
04 21:55 E 9 16.09 Fair CLR 22 22 100% 76.07 0.0
04 21:35 E 11 16.09 Fair CLR 21 21 100% 76.02 0.0
04 21:15 E 9 16.09 Fair CLR 21 21 100% 76.02 0.0
04 20:55 Calm 16.09 Fair CLR 22 22 100% 76.02 0.0
04 20:35 E 11 16.09 Fair CLR 22 22 100% 75.97 0.0
04 20:15 Calm 16.09 Fair CLR 23 22 94% 75.97 0.0
04 19:55 E 9 16.09 Fair CLR 24 21 83% 24 75.95 0.0
04 19:35 E 13 16.09 Fair CLR 26 21 74% 27 75.95 0.0
04 19:15 E 9 16.09 Fair CLR 27 21 70% 29 75.95 0.0
04 18:55 E 7 16.09 Fair CLR 27 21 70% 29 75.97 0.0
04 18:35 SE 9 16.09 Fair CLR 28 21 66% 30 75.97 0.0
04 18:15 SE 11 16.09 Fair CLR 29 21 62% 31 75.95 0.0
04 17:55 Vrbl 7 16.09 Fair CLR 30 22 62% 33 75.95 0.0
04 17:35 E 11 16.09 Fair CLR 30 21 59% 33 75.92 0.0
04 17:15 Vrbl 7 16.09 Fair CLR 30 21 59% 33 75.92 0.0
04 16:55 Vrbl 7 G 19 16.09 Fair CLR 30 20 55% 32 75.95 0.0
04 16:35 Vrbl 9 16.09 Fair CLR 30 22 62% 33 75.95 0.0
04 16:15 Vrbl 6 16.09 Fair CLR 30 21 59% 33 75.95 0.0
04 15:55 NE 9 16.09 Fair CLR 29 21 62% 31 75.97 0.0
04 15:35 Vrbl 9 16.09 Fair CLR 29 22 66% 32 75.97 0.0
04 15:15 NE 7 16.09 Fair CLR 29 22 66% 32 75.97 0.0
04 14:55 Vrbl 6 16.09 Fair CLR 28 22 70% 31 75.97 0.0
04 14:35 Vrbl 9 16.09 Fair CLR 28 22 70% 31 75.97 0.0
04 14:15 Vrbl 9 16.09 Fair CLR 27 22 74% 29 76 0.0
04 13:55 Vrbl 7 16.09 Fair CLR 27 22 74% 29 76 0.0
04 13:35 Vrbl 9 16.09 Partly Cloudy SCT015 26 22 79% 28 76 0.0
04 13:15 E 13 16.09 Overcast OVC014 26 22 79% 28 76 0.0
04 12:55 Vrbl 7 16.09 Overcast OVC012 25 22 83% 26 76 0.0
04 12:35 Vrbl 11 G 24 16.09 Mostly Cloudy BKN010 24 22 89% 24 76 0.0
04 12:15 NE 11 16.09 Overcast OVC008 23 22 94% 76 0.0
04 11:55 NE 15 16.09 Overcast OVC006 23 23 100% 76 0.0
04 11:35 NE 13 G 22 16.09 Overcast OVC005 22 22 100% 76 0.0
04 11:15 NE 15 16.09 Overcast OVC004 21 21 100% 75.97 0.0
04 10:55 N 13 14.48 Overcast OVC004 20 20 100% 75.97 0.0
04 10:35 N 9 4.83 Fog/Mist OVC003 20 20 100% 75.95 0.0
04 10:15 Vrbl 9 1.61 Light Drizzle Fog/Mist OVC003 20 20 100% 75.95 0.0
04 09:55 N 7 0.80 Light Drizzle Fog OVC002 20 20 100% 75.95 0.0
04 09:35 N 9 0.40 Drizzle Fog OVC002 20 20 100% 75.95 0.0
04 09:15 N 6 0.24 Fog OVC002 19 19 100% 75.92 0.0
04 08:55 NE 9 0.24 Fog OVC002 20 20 100% 75.9 0.0
04 08:35 NE 9 0.24 Fog OVC002 19 19 100% 75.9 0.0
04 08:15 N 6 0.24 Fog OVC002 19 19 100% 75.9 0.0
04 07:55 Calm 0.24 Fog OVC001 19 19 100% 75.84 0.0
04 07:35 NE 7 0.24 Fog OVC001 19 19 100% 75.84 0.0
04 07:15 N 7 0.24 Fog OVC001 19 19 100% 75.82 0.0
04 06:55 NE 7 0.24 Fog OVC002 19 19 100% 75.79 0.0
04 06:35 NE 7 0.40 Fog OVC002 19 19 100% 75.79 0.0
04 06:15 Calm 0.80 Fog/Mist OVC002 20 20 100% 75.77 0.0
04 05:55 N 7 0.80 Fog OVC002 20 20 100% 75.77 0.0
04 05:35 N 6 0.40 Fog OVC001 20 20 100% 75.77 0.0
04 05:15 Calm 0.24 Fog OVC001 20 20 100% 75.77 0.0
04 04:55 Calm 0.24 Fog OVC001 20 20 100% 75.74 0.0
04 04:35 Calm 0.24 Fog OVC001 20 20 100% 75.72 0.0
04 04:15 Vrbl 7 0.24 Fog OVC002 20 20 100% 75.69 0.0
04 03:55 N 13 0.40 Fog OVC002 20 20 100% 75.69 0.0
04 03:35 Vrbl 7 0.80 Fog/Mist OVC002 20 20 100% 75.69 0.0
04 03:15 NW 13 8.05 Fog/Mist BKN003 20 20 100% 75.64 0.0
04 02:55 W 6 16.09 Fair CLR 20 20 100% 75.64 0.0
04 02:35 W 9 16.09 Fair CLR 20 20 100% 75.62 0.0
04 02:15 NW 13 16.09 Fair CLR 21 21 100% 75.62 0.0
04 01:55 W 7 16.09 Fair CLR 21 21 100% 75.62 0.0
04 01:35 Calm 16.09 Fair CLR 21 21 100% 75.59 0.0
04 01:15 W 7 16.09 Fair CLR 21 21 100% 75.62 0.0
04 00:55 SE 7 16.09 Fair CLR 23 21 89% 75.57 0.0
04 00:35 SE 13 16.09 Fair CLR 23 22 94% 75.57 0.0
04 00:15 SE 9 16.09 Fair CLR 23 21 89% 75.57 0.0
03 23:55 SE 7 16.09 Fair CLR 23 22 94% 75.54 0.0
03 23:35 S 7 16.09 Fair CLR 24 21 83% 24 75.54 0.0
03 23:15 W 7 16.09 Fair CLR 24 22 89% 24 75.54 0.0
03 22:55 Calm 16.09 Fair CLR 24 22 89% 24 75.51 0.0
03 22:35 Calm 16.09 Fair CLR 24 23 94% 23 75.51 0.0
03 22:15 S 7 16.09 Fair CLR 25 23 89% 26 75.51 0.0
03 21:55 SE 9 16.09 Fair CLR 25 23 89% 26 75.51 0.0
03 21:35 SE 7 16.09 Fair CLR 26 23 84% 28 75.49 0.0
03 21:15 SE 9 16.09 Fair CLR 27 23 79% 30 75.49 0.0
03 20:55 SE 11 16.09 Fair CLR 27 23 79% 30 75.46 0.0
03 20:35 SE 11 16.09 Fair CLR 27 23 79% 30 75.44 0.0
03 20:15 SE 9 16.09 Fair CLR 27 23 79% 30 75.44 0.0
03 19:55 SE 11 16.09 Fair CLR 28 23 74% 31 75.41 0.0
03 19:35 E 9 16.09 Fair CLR 29 23 70% 33 75.41 0.0
03 19:15 E 9 16.09 Fair CLR 30 23 66% 34 75.39 0.0
03 18:55 SE 13 16.09 Fair CLR 31 22 59% 35 75.41 0.0
03 18:35 SE 9 16.09 Fair CLR 31 23 62% 35 75.41 0.0
03 18:15 SE 11 16.09 Fair CLR 32 22 55% 36 75.39 0.0
03 17:55 Vrbl 11 16.09 Fair CLR 32 22 55% 36 75.39 0.0
03 17:35 SE 15 16.09 Fair CLR 32 22 55% 36 75.39 0.0
03 17:15 SE 15 16.09 Fair CLR 32 22 55% 36 75.36 0.0
03 16:55 SE 11 G 24 16.09 Fair CLR 32 22 55% 36 75.39 0.0
03 16:35 SE 15 G 26 16.09 Fair CLR 32 22 55% 36 75.39 0.0
03 16:15 SE 15 16.09 Fair CLR 32 22 55% 36 75.39 0.0
03 15:55 SE 15 G 26 16.09 Fair CLR 32 22 55% 36 75.39 0.0
03 15:35 SE 19 G 28 16.09 Fair CLR 32 21 52% 35 75.41 0.0
03 15:15 S 15 16.09 Fair CLR 31 21 55% 34 75.41 0.0
03 14:55 SE 15 G 24 16.09 Fair CLR 32 21 52% 35 75.41 0.0
03 14:35 SE 15 G 26 16.09 Fair CLR 31 21 55% 34 75.39 0.0
03 14:15 SE 19 16.09 Fair CLR 31 21 55% 34 75.39 0.0
03 13:55 S 11 G 22 16.09 Fair CLR 31 21 55% 34 75.41 0.0
03 13:35 SE 17 16.09 Fair CLR 31 21 55% 34 75.44 0.0
03 13:15 S 15 G 30 16.09 Fair CLR 31 21 55% 34 75.46 0.0
03 12:55 SE 20 16.09 Fair CLR 30 21 59% 33 75.49 0.0
03 12:35 SE 22 16.09 Fair CLR 30 21 59% 33 75.51 0.0
03 12:15 S 19 16.09 Fair CLR 29 21 62% 31 75.51 0.0
03 11:55 S 13 G 24 16.09 Fair CLR 28 20 62% 30 75.51 0.0
03 11:35 SE 17 16.09 Fair CLR 28 20 62% 30 75.54 0.0
03 11:15 S 15 G 26 16.09 Fair CLR 28 20 62% 30 75.54 0.0
03 10:55 S 17 G 28 16.09 Fair CLR 28 20 62% 30 75.54 0.0
03 10:35 SE 20 G 37 16.09 Fair CLR 28 20 62% 30 75.54 0.0
03 10:15 SE 20 G 31 16.09 Fair CLR 27 21 70% 29 75.54 0.0
03 09:55 SE 19 G 31 16.09 Fair CLR 26 20 70% 27 75.54 0.0
03 09:35 SE 19 G 30 16.09 Fair CLR 26 20 70% 27 75.54 0.0
03 09:15 E 20 G 30 16.09 Fair CLR 25 21 79% 26 75.54 0.0
03 08:55 SE 20 16.09 Fair CLR 23 21 89% 75.54 0.0
03 08:35 E 17 16.09 Fair CLR 22 20 88% 75.57 0.0
03 08:15 E 17 16.09 Fair CLR 21 20 94% 75.57 0.0
03 07:55 E 20 16.09 Fair CLR 21 19 88% 75.57 0.0
03 07:35 E 17 16.09 Fair CLR 20 19 94% 75.59 0.0
03 07:15 E 19 16.09 Fair CLR 20 19 94% 75.59 0.0
03 06:55 E 15 16.09 Fair CLR 20 18 88% 75.59 0.0
03 06:35 E 17 16.09 Fair CLR 20 18 88% 75.59 0.0
03 06:15 E 15 16.09 Fair CLR 20 18 88% 75.62 0.0
03 05:55 E 13 16.09 Fair CLR 20 18 88% 75.62 0.0
03 05:35 E 13 16.09 Fair CLR 20 18 88% 75.62 0.0
03 05:15 E 15 16.09 Fair CLR 20 17 83% 75.62 0.0
03 04:55 E 15 16.09 Fair CLR 20 17 83% 75.62 0.0
03 04:35 E 13 16.09 Fair CLR 20 17 83% 75.64 0.0
03 04:15 E 13 16.09 Fair CLR 20 17 83% 75.64 0.0
03 03:55 E 15 16.09 Fair CLR 20 17 83% 75.64 0.0
03 03:35 E 17 16.09 Fair CLR 21 17 78% 75.64 0.0
03 03:15 E 15 16.09 Fair CLR 21 17 78% 75.64 0.0
03 02:55 E 15 16.09 A Few Clouds FEW055 21 17 78% 75.67 0.0
03 02:35 E 15 16.09 Fair CLR 22 17 73% 75.69 0.0
03 02:15 E 15 16.09 Fair CLR 22 17 73% 75.69 0.0
03 01:55 E 15 16.09 Fair CLR 22 17 73% 75.72 0.0
03 01:35 E 15 16.09 Fair CLR 22 17 73% 75.72 0.0
03 01:15 E 15 16.09 Fair CLR 22 17 73% 75.72 0.0
03 00:55 E 15 16.09 Fair CLR 23 17 69% 75.72 0.0
03 00:35 E 15 16.09 Fair CLR 22 17 73% 75.72 0.0
03 00:15 E 13 16.09 A Few Clouds FEW120 22 17 73% 75.74 0.0
02 23:55 E 13 16.09 A Few Clouds FEW120 23 17 69% 75.74 0.0
02 23:35 E 11 16.09 Fair CLR 23 17 69% 75.74 0.0
02 23:15 E 11 16.09 Fair CLR 23 17 69% 75.77 0.0
02 22:55 E 11 16.09 Partly Cloudy FEW035 SCT050 23 17 69% 75.77 0.0
02 22:35 E 9 16.09 Overcast OVC055 23 17 69% 75.77 0.0
02 22:20 E 13 16.09 Overcast OVC055 23 17 69% 75.77 0.0
02 21:55 E 11 16.09 Overcast BKN050 OVC060 24 16 61% 25 75.77 0.0
02 21:35 E 11 16.09 Overcast FEW049 OVC060 24 17 65% 25 75.77 0.0
02 21:15 E 11 16.09 Overcast FEW049 BKN060 OVC065 25 17 61% 26 75.77 0.0
02 20:55 E 11 16.09 Overcast FEW048 OVC060 25 17 61% 26 75.77 0.0
02 20:35 E 9 16.09 Overcast SCT050 OVC060 25 17 61% 26 75.74 0.0
02 20:15 E 9 16.09 Mostly Cloudy SCT050 BKN055 24 17 65% 25 75.74 0.0
02 19:55 E 9 16.09 Partly Cloudy SCT050 25 17 61% 26 75.74 0.0
02 19:35 SE 7 16.09 Fair CLR 26 17 58% 27 75.74 0.0
02 19:15 E 11 16.09 Fair CLR 27 16 51% 27 75.74 0.0
02 18:55 Vrbl 9 16.09 Fair CLR 28 17 51% 29 75.74 0.0
02 18:35 E 13 16.09 Fair CLR 28 16 48% 28 75.74 0.0
02 18:15 Vrbl 11 16.09 Partly Cloudy SCT080 29 16 45% 29 75.72 0.0
02 17:55 Vrbl 9 16.09 Partly Cloudy SCT080 28 16 48% 28 75.72 0.0
02 17:35 E 15 16.09 Partly Cloudy SCT080 29 16 45% 29 75.74 0.0
02 17:15 E 13 16.09 Overcast BKN080 OVC090 29 16 45% 29 75.74 0.0
02 16:55 Vrbl 7 16.09 Overcast OVC080 29 16 45% 29 75.77 0.0
02 16:35 SE 17 16.09 Mostly Cloudy BKN080 29 15 43% 29 75.77 0.0
02 16:15 Vrbl 11 16.09 A Few Clouds FEW080 29 15 43% 29 75.77 0.0
02 15:55 E 9 16.09 A Few Clouds FEW090 29 14 40% 29 75.79 0.0
02 15:35 Vrbl 11 G 20 16.09 A Few Clouds FEW075 FEW090 29 15 43% 29 75.82 0.0
02 15:15 SE 13 16.09 A Few Clouds FEW085 29 15 43% 29 75.82 0.0
02 14:55 SE 13 16.09 A Few Clouds FEW090 29 15 43% 29 75.84 0.0
02 14:35 Vrbl 9 G 20 16.09 Partly Cloudy SCT090 29 15 43% 29 75.84 0.0
02 14:15 NE 13 G 22 16.09 A Few Clouds FEW085 29 15 43% 29 75.87 0.0
02 13:55 Vrbl 11 16.09 Fair CLR 28 15 45% 28 75.87 0.0
02 13:35 Vrbl 6 G 20 16.09 Fair CLR 28 15 45% 28 75.9 0.0
02 13:15 E 9 16.09 Fair CLR 28 15 45% 28 75.9 0.0
02 12:55 NE 11 16.09 Fair CLR 27 16 51% 27 75.92 0.0
02 12:35 E 11 G 26 16.09 Fair CLR 27 15 48% 27 75.92 0.0
02 12:15 NE 13 16.09 Fair CLR 27 16 51% 27 75.92 0.0
02 11:55 Vrbl 7 16.09 Fair CLR 26 16 54% 27 75.95 0.0
02 11:35 SE 7 16.09 Fair CLR 25 16 57% 26 75.95 0.0
02 11:15 E 11 16.09 Fair CLR 25 17 61% 26 75.95 0.0
02 10:55 E 13 16.09 Fair CLR 25 17 61% 26 75.92 0.0
02 10:35 E 7 16.09 Fair CLR 23 18 74% 75.92 0.0
02 10:15 E 7 16.09 Fair CLR 22 18 78% 75.92 0.0
02 09:55 E 9 16.09 Partly Cloudy SCT080 22 18 78% 75.92 0.0
02 09:35 Calm 16.09 Mostly Cloudy BKN080 20 19 94% 75.97 0.0
02 09:15 E 6 16.09 Mostly Cloudy BKN085 20 20 100% 75.97 0.0
02 08:55 Calm 11.27 A Few Clouds FEW085 18 18 100% 76 0.0
02 08:35 Calm 16.09 Fair CLR 18 18 100% 75.97 0.0
02 08:15 NE 7 16.09 A Few Clouds FEW060 18 18 100% 75.97 0.0
02 07:55 E 6 16.09 Fair CLR 17 17 100% 75.95 0.0
02 07:35 Calm 16.09 Fair CLR 17 17 100% 75.97 0.0
02 07:15 Calm 16.09 Fair CLR 17 17 100% 75.97 0.0
02 06:55 N 11 16.09 A Few Clouds FEW100 16 16 100% 75.95 0.0
02 06:35 NE 7 16.09 Mostly Cloudy BKN100 16 16 100% 75.95 0.0
02 06:15 NE 11 16.09 Partly Cloudy SCT090 16 16 100% 75.95 0.0
02 05:55 NE 7 16.09 A Few Clouds FEW090 16 16 100% 75.97 0.0
02 05:35 Calm 14.48 Fair CLR 16 16 100% 75.97 0.0
02 05:15 Calm 14.48 A Few Clouds FEW110 16 16 100% 75.97 0.0
02 04:55 NE 6 16.09 Partly Cloudy SCT110 16 16 100% 75.97 0.0
02 04:35 NE 6 16.09 Fair CLR 17 17 100% 75.97 0.0
02 04:15 N 6 16.09 A Few Clouds FEW120 17 17 100% 75.97 0.0
02 03:55 Calm 16.09 A Few Clouds FEW090 17 16 94% 75.97 0.0
02 03:35 Calm 16.09 Mostly Cloudy BKN090 17 17 100% 75.97 0.0
02 03:15 S 7 16.09 Overcast OVC090 17 17 100% 75.97 0.0
02 02:55 S 6 16.09 Mostly Cloudy BKN090 17 17 100% 75.95 0.0
02 02:35 NW 7 16.09 Fair CLR 17 17 100% 75.92 0.0
02 02:15 Calm 16.09 A Few Clouds FEW100 17 17 100% 75.9 0.0
Date Time (cdt) Wind (kph) Vis. (km) Weather Sky Cond. Air Dwpt Max. Min. Relative Humidity Wind Chill (°C) Heat Index (°C) altimeter (cm) sea level (mb) 1 hr 3 hr 6 hr
6 hour
Temperature (ºC) Pressure Precipitation (cm)